Time;durP1;ratioP1;P1;durP2;ratioP2;P2;SDS_P1;SDS_P2;PMS_P1;PMS_P2;Temp;Humidity;BMP_temperature;BMP_pressure;BME280_temperature;BME280_humidity;BME280_pressure;Samples;Min_cycle;Max_cycle;Signal;HPM_P1;HPM_P2
2023/10/10 00:04:19;;;;;;;5.38;2.20;;;;;;;13.79;65.79;100454.19;10387447;28;20410;-65
2023/10/10 00:09:23;;;;;;;4.78;2.20;;;;;;;13.67;66.00;100454.97;10385154;28;20076;-66
2023/10/10 00:14:28;;;;;;;4.22;2.05;;;;;;;13.67;65.80;100447.94;10386928;28;20152;-65
2023/10/10 00:19:32;;;;;;;7.18;2.60;;;;;;;13.68;66.00;100451.41;10386444;28;20232;-66
2023/10/10 00:24:34;;;;;;;7.45;2.45;;;;;;;13.67;65.92;100461.09;10385615;28;20045;-65
2023/10/10 00:29:36;;;;;;;5.70;2.25;;;;;;;13.73;65.89;100459.84;10383327;28;20235;-66
2023/10/10 00:34:38;;;;;;;9.82;2.60;;;;;;;13.68;66.02;100451.41;10385197;28;20508;-66
2023/10/10 00:39:40;;;;;;;6.43;2.60;;;;;;;13.62;65.79;100457.03;10380911;28;20417;-65
2023/10/10 00:44:44;;;;;;;4.10;2.13;;;;;;;13.51;65.85;100433.25;10387028;28;20528;-65
2023/10/10 00:49:46;;;;;;;6.13;2.40;;;;;;;13.32;66.05;100437.94;10383793;28;20148;-65
2023/10/10 00:54:49;;;;;;;7.60;2.33;;;;;;;13.24;66.24;100440.22;10385119;28;20670;-65
2023/10/10 00:59:54;;;;;;;4.28;2.20;;;;;;;13.23;66.34;100433.28;10384642;28;20065;-65
2023/10/10 01:04:56;;;;;;;6.13;2.17;;;;;;;13.20;66.42;100434.31;10381031;28;20391;-65
2023/10/10 01:10:10;;;;;;;5.63;1.98;;;;;;;13.21;66.24;100420.22;10381859;28;20189;-66
2023/10/10 01:15:15;;;;;;;4.32;1.98;;;;;;;13.18;66.42;100423.06;10384082;28;20505;-65
2023/10/10 01:20:33;;;;;;;4.72;2.20;;;;;;;13.15;66.46;100417.97;10384840;28;20515;-66
2023/10/10 01:30:48;;;;;;;6.85;3.15;;;;;;;13.05;66.34;100416.06;10383450;28;20551;-66
2023/10/10 01:35:55;;;;;;;4.15;2.03;;;;;;;12.91;66.71;100416.88;10381272;28;20071;-67
2023/10/10 01:41:02;;;;;;;5.57;2.35;;;;;;;12.84;66.83;100411.16;10380927;28;20123;-66
2023/10/10 01:46:08;;;;;;;6.38;2.22;;;;;;;12.88;66.85;100402.16;10368343;28;20046;-66
2023/10/10 01:51:15;;;;;;;4.28;2.00;;;;;;;12.85;66.82;100406.75;10382239;28;20505;-66
2023/10/10 01:56:17;;;;;;;5.50;2.28;;;;;;;12.85;66.85;100412.88;10384509;28;20057;-66
2023/10/10 02:01:20;;;;;;;7.15;2.40;;;;;;;12.86;66.76;100406.66;10395774;28;20409;-66
2023/10/10 02:06:24;;;;;;;6.43;2.60;;;;;;;12.90;66.42;100405.53;10389885;28;20053;-66
2023/10/10 02:11:31;;;;;;;4.68;2.25;;;;;;;12.83;66.69;100401.63;10388208;28;20417;-66
2023/10/10 02:16:39;;;;;;;3.90;2.00;;;;;;;12.80;66.50;100406.22;10390967;28;20165;-66
2023/10/10 02:21:47;;;;;;;4.65;2.22;;;;;;;12.80;66.48;100399.16;10392227;28;20390;-66
2023/10/10 02:26:51;;;;;;;5.60;2.08;;;;;;;12.80;66.64;100404.41;10389194;28;20045;-66
2023/10/10 02:32:36;;;;;;;5.25;1.98;;;;;;;12.77;66.36;100404.63;10388815;28;20050;-67
2023/10/10 02:42:20;;;;;;;11.73;1.95;;;;;;;12.72;66.58;100411.91;10391337;28;20429;-64
2023/10/10 02:47:32;;;;;;;5.72;2.10;;;;;;;12.72;66.62;100405.84;10388966;28;20049;-64
2023/10/10 02:52:39;;;;;;;4.68;2.38;;;;;;;12.71;66.37;100409.38;10391818;28;20067;-64
2023/10/10 02:57:41;;;;;;;4.03;1.88;;;;;;;12.69;66.33;100406.88;10396204;28;20076;-65
2023/10/10 03:02:53;;;;;;;4.30;2.15;;;;;;;12.66;66.43;100407.03;10395452;28;20124;-65
2023/10/10 03:07:58;;;;;;;5.22;2.10;;;;;;;12.65;66.46;100407.13;10390457;28;20041;-64
2023/10/10 03:13:27;;;;;;;4.22;2.10;;;;;;;12.55;66.37;100412.13;10389116;28;20053;-64
2023/10/10 03:18:29;;;;;;;5.20;2.38;;;;;;;12.47;66.44;100414.34;10390858;28;20049;-66
2023/10/10 03:23:51;;;;;;;4.65;2.25;;;;;;;12.40;66.47;100413.00;10386467;28;20152;-66
2023/10/10 03:29:03;;;;;;;5.65;2.00;;;;;;;12.35;66.33;100415.09;10390988;28;20092;-66
2023/10/10 03:34:19;;;;;;;3.85;2.22;;;;;;;12.33;66.38;100411.72;10388423;28;20053;-66
2023/10/10 03:39:42;;;;;;;3.75;2.13;;;;;;;12.11;66.38;100414.69;10390161;28;20080;-67
2023/10/10 05:26:47;;;;;;;6.50;2.03;;;;;;;10.99;67.37;100411.50;10375207;28;20202;-68
2023/10/10 05:31:55;;;;;;;6.25;3.08;;;;;;;11.13;67.43;100409.81;10379820;28;20052;-68
2023/10/10 05:36:57;;;;;;;11.60;3.47;;;;;;;11.29;67.23;100404.63;10382073;28;20034;-68
2023/10/10 05:42:01;;;;;;;7.57;2.97;;;;;;;11.39;66.96;100410.19;10382577;28;20424;-68
2023/10/10 05:47:03;;;;;;;7.10;2.92;;;;;;;11.36;66.85;100410.38;10381367;28;20045;-68
2023/10/10 05:52:06;;;;;;;8.35;2.50;;;;;;;11.37;67.03;100414.66;10379573;28;20508;-68
2023/10/10 05:57:10;;;;;;;4.55;2.35;;;;;;;11.48;66.69;100414.91;10376586;28;20426;-68
2023/10/10 06:02:12;;;;;;;5.38;2.17;;;;;;;11.52;66.72;100414.63;10377370;28;20140;-68
2023/10/10 06:07:15;;;;;;;15.10;2.45;;;;;;;11.45;66.75;100413.31;10364216;28;20215;-68
2023/10/10 06:12:19;;;;;;;15.00;2.83;;;;;;;11.55;66.56;100414.50;10372062;28;20502;-67
2023/10/10 06:17:24;;;;;;;5.32;2.55;;;;;;;11.57;66.68;100420.47;10364959;28;20627;-67
2023/10/10 06:22:29;;;;;;;3.25;1.85;;;;;;;11.77;66.23;100429.81;10370685;28;20053;-67
2023/10/10 06:27:36;;;;;;;3.08;1.80;;;;;;;11.88;66.29;100432.69;10364755;28;20047;-68
2023/10/10 06:32:38;;;;;;;5.78;2.13;;;;;;;12.13;65.88;100432.94;10364784;28;20048;-67
2023/10/10 06:37:41;;;;;;;14.18;2.67;;;;;;;12.15;65.55;100438.94;10369277;28;20417;-67
2023/10/10 06:42:47;;;;;;;3.60;1.73;;;;;;;12.11;65.58;100440.91;10369465;28;20075;-67
2023/10/10 06:47:52;;;;;;;7.38;2.50;;;;;;;12.22;65.92;100439.44;10377318;28;20292;-68
2023/10/10 06:52:55;;;;;;;7.43;2.47;;;;;;;12.47;65.62;100434.50;10376976;28;20128;-67
2023/10/10 06:57:59;;;;;;;5.57;2.17;;;;;;;12.72;65.35;100439.97;10378281;28;20040;-68
2023/10/10 07:03:03;;;;;;;5.35;2.40;;;;;;;12.86;65.14;100424.22;10377457;28;20045;-67
2023/10/10 07:08:13;;;;;;;3.92;2.08;;;;;;;12.89;65.03;100422.25;10373491;28;20573;-68
2023/10/10 07:13:18;;;;;;;6.05;2.25;;;;;;;12.87;65.14;100420.63;10377288;28;20529;-67
2023/10/10 07:18:24;;;;;;;5.13;2.83;;;;;;;13.03;65.30;100425.81;10382368;28;20063;-67
2023/10/10 07:23:36;;;;;;;4.28;2.38;;;;;;;13.37;64.46;100423.56;10380674;28;20045;-67
2023/10/10 07:28:48;;;;;;;6.90;2.25;;;;;;;13.64;64.41;100426.25;10413752;28;20179;-68
2023/10/10 07:34:04;;;;;;;6.90;2.30;;;;;;;13.77;64.10;100427.16;10385235;28;20172;-67
2023/10/10 07:44:30;;;;;;;;;;;;;;;14.09;63.37;100409.25;10389719;28;20052;-67
2023/10/10 07:49:32;;;;;;;8.15;2.80;;;;;;;14.26;63.52;100412.47;10389559;28;19924;-67
2023/10/10 07:54:40;;;;;;;7.03;2.60;;;;;;;14.57;63.30;100414.72;10387273;28;20045;-68
2023/10/10 07:59:43;;;;;;;8.15;3.10;;;;;;;14.70;63.02;100405.97;10383754;28;20045;-68
2023/10/10 08:04:50;;;;;;;7.82;3.75;;;;;;;14.94;62.39;100404.28;10383275;28;20067;-68
2023/10/10 08:10:13;;;;;;;9.27;3.20;;;;;;;15.32;61.87;100405.88;10386020;28;20242;-68
2023/10/10 08:15:19;;;;;;;6.85;3.65;;;;;;;15.61;61.42;100410.88;10389009;28;20055;-67
2023/10/10 08:25:37;;;;;;;7.72;3.58;;;;;;;16.15;60.63;100394.44;10390325;28;20048;-68
2023/10/10 08:30:40;;;;;;;7.97;3.47;;;;;;;16.23;59.64;100399.97;10388238;28;20053;-67
2023/10/10 08:35:42;;;;;;;8.15;3.17;;;;;;;16.04;59.64;100404.94;10389471;28;20060;-67
2023/10/10 08:40:48;;;;;;;9.63;3.47;;;;;;;16.03;60.21;100405.06;10387905;28;20476;-67
2023/10/10 08:45:54;;;;;;;8.20;3.63;;;;;;;16.18;59.67;100398.66;10387804;28;20076;-68
2023/10/10 08:51:03;;;;;;;9.23;3.85;;;;;;;16.41;59.64;100389.78;10386776;28;20041;-67
2023/10/10 08:56:06;;;;;;;12.07;4.10;;;;;;;16.57;58.92;100382.41;10389798;28;20516;-67
2023/10/10 09:01:08;;;;;;;7.85;3.80;;;;;;;16.86;58.82;100390.72;10387917;28;20128;-68
2023/10/10 09:06:33;;;;;;;9.02;3.20;;;;;;;17.23;58.09;100381.56;10389871;28;20124;-67
2023/10/10 09:11:37;;;;;;;8.02;3.40;;;;;;;17.54;57.74;100378.16;10384479;28;20057;-68
2023/10/10 09:16:41;;;;;;;9.05;3.72;;;;;;;17.73;57.66;100370.38;10387843;28;20053;-68
2023/10/10 09:21:50;;;;;;;7.82;3.08;;;;;;;17.85;57.25;100374.66;10384770;28;20033;-68
2023/10/10 09:26:56;;;;;;;9.23;3.08;;;;;;;17.96;57.11;100362.34;10387720;28;20041;-68
2023/10/10 09:32:01;;;;;;;6.78;3.33;;;;;;;18.10;56.74;100360.22;10385969;28;20151;-68
2023/10/10 09:37:07;;;;;;;9.07;2.90;;;;;;;18.39;56.04;100357.78;10384668;28;20044;-68
2023/10/10 09:42:23;;;;;;;9.55;2.90;;;;;;;18.52;55.56;100353.94;10385071;28;20046;-68
2023/10/10 09:47:43;;;;;;;7.25;2.67;;;;;;;18.60;55.86;100351.50;10387023;28;20041;-67
2023/10/10 09:52:58;;;;;;;11.18;2.60;;;;;;;18.87;55.17;100350.06;10381400;28;20045;-68
2023/10/10 09:58:00;;;;;;;6.18;2.88;;;;;;;18.97;55.33;100343.00;10385629;28;20048;-68
2023/10/10 10:03:55;;;;;;;9.98;2.88;;;;;;;19.07;55.17;100344.72;10384175;28;20052;-68
2023/10/10 10:08:42;;;;;;;5.82;2.60;;;;;;;19.24;54.17;100335.25;10379758;28;20057;-68
2023/10/10 10:14:11;;;;;;;6.38;2.78;;;;;;;19.60;54.18;100337.28;10382676;28;20086;-68
2023/10/10 10:19:26;;;;;;;5.30;2.75;;;;;;;20.07;53.88;100335.59;10374510;28;20053;-68
2023/10/10 10:24:50;;;;;;;5.55;2.55;;;;;;;20.29;52.99;100337.91;10381805;28;20681;-68
2023/10/10 10:30:07;;;;;;;7.55;2.83;;;;;;;20.31;53.61;100332.47;10382857;28;20376;-68
2023/10/10 10:35:12;;;;;;;6.43;3.00;;;;;;;20.56;53.49;100323.84;10383034;28;20541;-68
2023/10/10 10:40:24;;;;;;;5.75;2.85;;;;;;;20.48;52.54;100321.91;10379629;28;20509;-68
2023/10/10 10:45:36;;;;;;;5.88;2.55;;;;;;;20.71;52.78;100323.25;10382747;28;20418;-68
2023/10/10 10:50:40;;;;;;;7.05;3.05;;;;;;;20.74;53.07;100322.13;10374365;28;20343;-67
2023/10/10 10:55:52;;;;;;;7.18;2.88;;;;;;;20.91;53.00;100308.88;10382537;28;20142;-68
2023/10/10 11:06:05;;;;;;;7.80;3.05;;;;;;;20.79;53.42;100306.56;10382427;28;20440;-68
2023/10/10 11:11:23;;;;;;;5.97;2.55;;;;;;;21.02;53.06;100300.72;10384441;28;20049;-67
2023/10/10 11:16:37;;;;;;;8.52;3.25;;;;;;;21.20;52.41;100290.09;10392444;28;20473;-67
2023/10/10 11:21:47;;;;;;;6.45;2.95;;;;;;;21.39;52.02;100287.31;10392269;28;20621;-67
2023/10/10 11:27:14;;;;;;;7.50;2.47;;;;;;;21.60;50.86;100279.00;10384056;28;20045;-67
2023/10/10 11:32:24;;;;;;;7.55;2.80;;;;;;;21.56;51.77;100264.34;10392385;28;20041;-67
2023/10/10 11:37:31;;;;;;;5.38;2.42;;;;;;;21.75;51.50;100269.50;10374610;28;20053;-67
2023/10/10 11:42:34;;;;;;;7.20;2.78;;;;;;;21.97;51.48;100268.97;10392509;28;20493;-67
2023/10/10 11:47:44;;;;;;;5.53;2.90;;;;;;;21.95;50.89;100259.47;10390100;28;20041;-66
2023/10/10 11:52:56;;;;;;;7.65;2.97;;;;;;;22.01;50.64;100259.69;10383907;28;20504;-66
2023/10/10 11:58:06;;;;;;;7.45;2.38;;;;;;;22.29;51.00;100253.22;10378346;28;20033;-66
2023/10/10 12:03:12;;;;;;;6.15;2.40;;;;;;;22.37;50.12;100241.78;10388189;28;20375;-66
2023/10/10 12:08:22;;;;;;;5.40;2.50;;;;;;;22.56;50.13;100233.53;10385243;28;20065;-66
2023/10/10 12:18:35;;;;;;;6.80;2.33;;;;;;;22.67;48.28;100231.41;10385414;28;20838;-67
2023/10/10 12:23:37;;;;;;;6.68;2.00;;;;;;;22.62;47.09;100225.72;10387576;28;20045;-67
2023/10/10 12:28:39;;;;;;;6.43;2.20;;;;;;;22.59;46.89;100218.06;10386512;28;20640;-67
2023/10/10 12:33:45;;;;;;;6.13;1.90;;;;;;;22.72;46.63;100211.44;10383654;28;20068;-66
2023/10/10 12:38:48;;;;;;;4.50;2.03;;;;;;;22.80;46.05;100206.16;10377127;28;20418;-66
2023/10/10 12:43:51;;;;;;;18.67;3.22;;;;;;;22.77;45.89;100193.13;10386828;28;20135;-66
2023/10/10 12:48:52;;;;;;;4.78;2.10;;;;;;;22.82;45.07;100198.81;10385601;28;20045;-67
2023/10/10 12:54:05;;;;;;;8.48;2.25;;;;;;;22.85;43.84;100195.81;10384023;28;20053;-66
2023/10/10 12:59:15;;;;;;;4.97;1.98;;;;;;;22.92;43.92;100192.34;10382801;28;20128;-66
2023/10/10 13:04:36;;;;;;;5.43;2.37;;;;;;;22.88;43.28;100190.16;10382950;28;20041;-66
2023/10/10 13:09:42;;;;;;;4.32;2.05;;;;;;;22.89;42.46;100187.31;10379771;28;20049;-66
2023/10/10 13:14:50;;;;;;;6.43;2.10;;;;;;;22.95;42.19;100172.50;10375008;28;20041;-66
2023/10/10 13:19:52;;;;;;;4.22;1.90;;;;;;;22.92;41.77;100167.50;10374668;28;20765;-66
2023/10/10 13:24:55;;;;;;;4.65;2.10;;;;;;;22.92;41.25;100176.34;10378815;28;20080;-66
2023/10/10 13:29:57;;;;;;;4.15;1.85;;;;;;;22.99;40.97;100165.81;10381874;28;20041;-67
2023/10/10 13:35:00;;;;;;;4.43;2.10;;;;;;;23.03;40.75;100162.66;10381804;28;20046;-66
2023/10/10 13:40:05;;;;;;;4.07;1.80;;;;;;;23.16;40.49;100165.69;10376820;28;20046;-67
2023/10/10 13:45:11;;;;;;;4.32;1.77;;;;;;;23.11;40.23;100156.50;10381750;28;20049;-67
2023/10/10 13:50:28;;;;;;;8.90;2.33;;;;;;;23.16;39.39;100159.50;10372965;28;20049;-67
2023/10/10 13:55:34;;;;;;;4.55;1.98;;;;;;;23.18;40.35;100152.19;10380868;28;20056;-68
2023/10/10 14:00:38;;;;;;;5.05;2.33;;;;;;;23.21;40.09;100159.84;10382301;28;20145;-67
2023/10/10 14:06:00;;;;;;;5.22;2.17;;;;;;;23.24;39.46;100156.84;10380521;28;20357;-67
2023/10/10 14:11:04;;;;;;;4.53;2.10;;;;;;;23.43;39.52;100152.00;10382073;28;20081;-67
2023/10/10 14:16:06;;;;;;;4.80;1.73;;;;;;;23.54;39.08;100153.50;10380629;28;20045;-68
2023/10/10 14:21:10;;;;;;;7.38;2.38;;;;;;;23.61;38.80;100154.50;10381877;28;20484;-68
2023/10/10 14:26:14;;;;;;;3.97;2.00;;;;;;;23.61;39.53;100149.16;10365583;28;20045;-66
2023/10/10 14:31:42;;;;;;;5.32;2.25;;;;;;;23.52;36.78;100131.50;10381255;28;20571;-67
2023/10/10 14:36:46;;;;;;;5.43;2.10;;;;;;;23.58;38.76;100135.31;10380942;28;20092;-67
2023/10/10 14:41:48;;;;;;;4.63;2.15;;;;;;;23.54;38.94;100136.66;10381037;28;20133;-67
2023/10/10 14:46:51;;;;;;;4.22;1.90;;;;;;;23.48;39.39;100124.81;10380397;28;20236;-66
2023/10/10 14:51:53;;;;;;;5.22;2.10;;;;;;;23.39;38.68;100126.63;10381379;28;20065;-66
2023/10/10 14:56:55;;;;;;;6.57;2.05;;;;;;;23.35;38.73;100122.63;10380655;28;20569;-66
2023/10/10 15:02:04;;;;;;;5.68;2.50;;;;;;;23.37;38.40;100127.81;10380602;28;20184;-67
2023/10/10 15:07:06;;;;;;;4.82;2.00;;;;;;;23.32;39.04;100130.16;10381716;28;20408;-67
2023/10/10 15:12:08;;;;;;;15.55;2.65;;;;;;;23.21;39.23;100120.66;10371653;28;20064;-66
2023/10/10 15:17:10;;;;;;;7.63;2.45;;;;;;;23.06;39.44;100119.66;10375543;28;20348;-66
2023/10/10 15:22:16;;;;;;;9.20;2.03;;;;;;;23.05;39.96;100119.81;10374428;28;20049;-67
2023/10/10 15:27:19;;;;;;;8.98;2.45;;;;;;;22.96;40.54;100126.16;10371491;28;20075;-67
2023/10/10 15:32:21;;;;;;;4.55;2.00;;;;;;;22.83;40.46;100123.13;10374371;28;20069;-67
2023/10/10 15:37:26;;;;;;;8.45;2.67;;;;;;;22.65;41.03;100129.44;10369973;28;20056;-66
2023/10/10 15:42:28;;;;;;;5.30;1.90;;;;;;;22.48;41.65;100125.06;10373189;28;20168;-67
2023/10/10 15:47:31;;;;;;;6.80;2.25;;;;;;;22.16;43.13;100124.97;10375735;28;20061;-66
2023/10/10 15:52:33;;;;;;;3.92;1.80;;;;;;;22.01;43.23;100123.00;10379851;28;20053;-66
2023/10/10 15:57:35;;;;;;;4.70;1.65;;;;;;;21.80;43.06;100126.09;10375060;28;20520;-66
2023/10/10 16:02:39;;;;;;;5.55;2.10;;;;;;;21.64;43.03;100129.47;10380147;28;20041;-67
2023/10/10 16:07:46;;;;;;;5.28;2.13;;;;;;;21.48;43.52;100131.22;10378028;28;20524;-66
2023/10/10 16:13:07;;;;;;;4.47;2.08;;;;;;;21.19;45.09;100134.16;10375387;28;20069;-67
2023/10/10 16:18:09;;;;;;;4.18;1.88;;;;;;;20.95;46.09;100137.41;10380703;28;20034;-67
2023/10/10 16:23:12;;;;;;;7.50;2.30;;;;;;;20.70;46.60;100137.34;10386670;28;20479;-67
2023/10/10 16:28:17;;;;;;;5.15;2.10;;;;;;;20.44;47.16;100139.84;10378607;28;20556;-67
2023/10/10 16:33:23;;;;;;;6.18;2.08;;;;;;;20.11;48.23;100141.28;10383392;28;20054;-67
2023/10/10 16:38:30;;;;;;;7.10;2.90;;;;;;;19.79;48.98;100140.00;10380234;28;20301;-67
2023/10/10 16:43:36;;;;;;;5.65;2.22;;;;;;;19.53;49.66;100138.97;10386286;28;20399;-67
2023/10/10 16:48:56;;;;;;;5.22;2.25;;;;;;;19.21;50.45;100144.63;10378993;28;20044;-67
2023/10/10 16:53:59;;;;;;;6.05;2.40;;;;;;;18.97;50.96;100142.34;10379626;28;20049;-67
2023/10/10 16:59:04;;;;;;;4.78;2.28;;;;;;;18.74;51.71;100148.91;10382745;28;20050;-67
2023/10/10 17:04:06;;;;;;;6.32;2.67;;;;;;;18.50;52.43;100157.22;10384507;28;20140;-67
2023/10/10 17:09:10;;;;;;;4.15;2.10;;;;;;;18.29;52.81;100168.91;10380292;28;20350;-67
2023/10/10 17:14:13;;;;;;;12.77;2.63;;;;;;;18.05;53.68;100174.50;10382177;28;20112;-67
2023/10/10 17:19:19;;;;;;;5.30;2.30;;;;;;;17.91;53.92;100172.22;10380865;28;20055;-66
2023/10/10 17:24:22;;;;;;;5.38;2.72;;;;;;;17.67;54.73;100172.50;10382161;28;20057;-66
2023/10/10 17:29:24;;;;;;;4.90;2.05;;;;;;;17.50;54.80;100170.47;10376622;28;20603;-65
2023/10/10 17:34:32;;;;;;;5.35;2.55;;;;;;;17.43;55.42;100169.28;10377810;28;20050;-65
2023/10/10 17:39:35;;;;;;;7.35;2.45;;;;;;;17.34;55.42;100164.78;10381616;28;20085;-64
2023/10/10 17:44:40;;;;;;;6.05;2.20;;;;;;;17.16;55.83;100163.63;10366439;28;20589;-65
2023/10/10 17:49:42;;;;;;;6.25;2.55;;;;;;;17.04;56.40;100173.41;10368318;28;20422;-65
2023/10/10 17:54:45;;;;;;;9.98;2.83;;;;;;;16.93;56.70;100168.19;10371252;28;20063;-65
2023/10/10 17:59:52;;;;;;;6.82;3.25;;;;;;;16.82;57.26;100180.59;10360895;28;20735;-65
2023/10/10 18:04:55;;;;;;;6.97;2.92;;;;;;;16.59;57.61;100182.44;10361421;28;20057;-65
2023/10/10 18:09:57;;;;;;;5.70;2.72;;;;;;;16.42;57.92;100182.09;10365940;28;20068;-65
2023/10/10 18:15:00;;;;;;;8.10;2.90;;;;;;;16.36;58.13;100172.88;10363060;28;20041;-67
2023/10/10 18:20:14;;;;;;;6.78;2.53;;;;;;;16.32;58.23;100178.50;10358465;28;20122;-66
2023/10/10 18:25:16;;;;;;;5.28;2.60;;;;;;;16.27;58.64;100178.03;10367280;28;20037;-67
2023/10/10 18:30:20;;;;;;;6.72;2.78;;;;;;;16.20;58.76;100181.16;10371756;28;20056;-67
2023/10/10 18:35:26;;;;;;;7.43;2.90;;;;;;;16.16;58.99;100174.44;10370537;28;20144;-66
2023/10/10 18:40:30;;;;;;;5.38;2.00;;;;;;;16.06;59.19;100172.66;10373413;28;20606;-65
2023/10/10 18:45:33;;;;;;;7.72;2.88;;;;;;;15.89;59.47;100173.97;10378267;28;20045;-65
2023/10/10 18:50:36;;;;;;;6.38;2.13;;;;;;;15.86;59.69;100174.19;10365904;28;20064;-64
2023/10/10 18:55:38;;;;;;;6.70;2.22;;;;;;;15.79;59.89;100178.28;10375501;28;20111;-64
2023/10/10 19:00:40;;;;;;;4.90;2.55;;;;;;;15.70;60.24;100178.97;10374358;28;20045;-64
2023/10/10 19:05:42;;;;;;;4.55;2.50;;;;;;;15.63;60.18;100177.78;10370998;28;20047;-64
2023/10/10 19:10:50;;;;;;;7.75;2.90;;;;;;;15.54;60.46;100177.63;10375518;28;20049;-65
2023/10/10 19:15:52;;;;;;;6.30;2.35;;;;;;;15.47;60.57;100171.94;10372703;28;20398;-65
2023/10/10 19:20:54;;;;;;;5.47;2.28;;;;;;;15.40;60.83;100179.50;10375204;28;20550;-66
2023/10/10 19:25:57;;;;;;;5.97;2.25;;;;;;;15.44;61.09;100174.84;10372185;28;20049;-66
2023/10/10 19:30:59;;;;;;;9.25;3.13;;;;;;;15.54;60.96;100167.94;10370863;28;20048;-65
2023/10/10 19:36:01;;;;;;;8.88;2.50;;;;;;;15.59;60.90;100171.03;10382660;28;20072;-66
2023/10/10 19:41:04;;;;;;;6.32;2.70;;;;;;;15.56;61.19;100168.66;10384989;28;20052;-66
2023/10/10 19:46:11;;;;;;;5.15;2.55;;;;;;;15.62;60.99;100175.25;10387142;28;20038;-66
2023/10/10 19:51:18;;;;;;;6.65;3.10;;;;;;;15.70;61.17;100171.06;10384705;28;20156;-66
2023/10/10 19:56:21;;;;;;;8.55;2.38;;;;;;;15.74;61.00;100169.88;10386993;28;20061;-66
2023/10/10 20:01:25;;;;;;;4.97;2.33;;;;;;;15.74;61.00;100164.59;10384942;28;20061;-65
2023/10/10 20:06:30;;;;;;;6.95;2.40;;;;;;;15.48;60.97;100172.78;10401881;28;20041;-65
2023/10/10 20:11:32;;;;;;;5.95;2.58;;;;;;;15.44;61.41;100180.09;10387395;28;20054;-65
2023/10/10 20:16:38;;;;;;;7.03;2.75;;;;;;;15.47;61.29;100169.31;10379700;28;20064;-65
2023/10/10 20:21:41;;;;;;;9.40;2.78;;;;;;;15.47;61.21;100166.69;10386542;28;20057;-65
2023/10/10 20:26:44;;;;;;;9.88;3.15;;;;;;;15.40;61.37;100166.31;10380403;28;20743;-66
2023/10/10 20:31:46;;;;;;;5.07;2.40;;;;;;;15.38;61.66;100177.94;10384362;28;20179;-65
2023/10/10 20:36:51;;;;;;;8.00;2.60;;;;;;;15.39;61.59;100169.06;10383334;28;20560;-65
2023/10/10 20:41:55;;;;;;;5.32;2.63;;;;;;;15.39;61.33;100166.41;10382480;28;20531;-65
2023/10/10 20:47:01;;;;;;;7.25;2.28;;;;;;;15.36;61.38;100167.53;10377404;28;20139;-65
2023/10/10 20:52:05;;;;;;;7.25;2.60;;;;;;;15.18;61.87;100154.88;10384640;28;20497;-65
2023/10/10 20:57:07;;;;;;;8.18;2.33;;;;;;;15.09;61.98;100159.03;10384084;28;20413;-65
2023/10/10 21:02:11;;;;;;;6.45;2.25;;;;;;;15.12;61.89;100150.06;10385317;28;20389;-65
2023/10/10 21:07:13;;;;;;;5.13;2.30;;;;;;;15.09;62.32;100153.78;10384508;28;20600;-65
2023/10/10 21:12:15;;;;;;;5.95;2.10;;;;;;;15.08;62.04;100153.91;10383732;28;20316;-65
2023/10/10 21:17:17;;;;;;;7.60;2.30;;;;;;;14.76;62.23;100151.00;10381000;28;20085;-65
2023/10/10 21:22:19;;;;;;;5.05;2.67;;;;;;;14.66;62.82;100159.66;10383227;28;20053;-64
2023/10/10 21:27:23;;;;;;;5.70;2.53;;;;;;;14.68;63.10;100149.88;10366437;28;20112;-65
2023/10/10 21:32:26;;;;;;;7.97;2.55;;;;;;;14.81;63.18;100150.66;10384378;28;20314;-65
2023/10/10 21:37:28;;;;;;;7.07;2.20;;;;;;;14.80;63.01;100143.72;10379440;28;20055;-65
2023/10/10 21:42:30;;;;;;;6.63;2.58;;;;;;;14.93;63.06;100144.47;10384781;28;20425;-65
2023/10/10 21:47:35;;;;;;;7.93;2.20;;;;;;;14.95;62.70;100142.56;10380957;28;20056;-65
2023/10/10 21:52:40;;;;;;;4.18;2.15;;;;;;;14.83;62.68;100140.84;10382751;28;20089;-65
2023/10/10 21:57:47;;;;;;;5.18;2.33;;;;;;;14.82;63.04;100140.00;10383372;28;20465;-65
2023/10/10 22:02:50;;;;;;;6.07;2.20;;;;;;;14.80;62.88;100133.19;10376650;28;20472;-65
2023/10/10 22:07:52;;;;;;;7.35;2.75;;;;;;;14.74;63.21;100123.09;10381011;28;20051;-64
2023/10/10 22:12:54;;;;;;;4.93;2.40;;;;;;;14.74;63.32;100123.94;10382004;28;20420;-64
2023/10/10 22:17:58;;;;;;;6.40;2.95;;;;;;;14.71;63.23;100132.09;10378129;28;20050;-66
2023/10/10 22:23:00;;;;;;;5.97;2.45;;;;;;;14.63;63.22;100123.06;10381501;28;20057;-65
2023/10/10 22:28:03;;;;;;;6.30;2.38;;;;;;;14.55;63.29;100119.19;10379245;28;20053;-65
2023/10/10 22:33:09;;;;;;;6.70;3.20;;;;;;;14.59;63.49;100117.19;10381219;28;20132;-64
2023/10/10 22:38:12;;;;;;;6.53;2.50;;;;;;;14.71;63.46;100118.91;10381302;28;20092;-65
2023/10/10 22:43:15;;;;;;;5.50;2.30;;;;;;;14.73;63.40;100113.53;10381614;28;20127;-65
2023/10/10 22:48:17;;;;;;;5.72;2.28;;;;;;;14.72;63.29;100109.19;10375267;28;20061;-64
2023/10/10 22:53:19;;;;;;;16.02;3.25;;;;;;;14.52;63.32;100102.78;10381685;28;20176;-66
2023/10/10 22:58:21;;;;;;;5.32;2.25;;;;;;;14.40;63.58;100109.75;10378311;28;20053;-65
2023/10/10 23:03:23;;;;;;;8.25;3.28;;;;;;;14.28;63.98;100110.66;10380725;28;20053;-66
2023/10/10 23:08:26;;;;;;;6.00;2.35;;;;;;;14.29;64.19;100104.41;10379281;28;20048;-65
2023/10/10 23:13:28;;;;;;;5.55;2.40;;;;;;;14.37;64.08;100099.44;10384408;28;20046;-66
2023/10/10 23:18:35;;;;;;;6.93;2.35;;;;;;;14.24;63.97;100103.94;10385157;28;20573;-65
2023/10/10 23:23:37;;;;;;;4.68;2.00;;;;;;;14.24;63.84;100098.66;10388320;28;20042;-64
2023/10/10 23:28:39;;;;;;;5.95;2.60;;;;;;;14.16;64.09;100090.50;10384394;28;20160;-64
2023/10/10 23:33:41;;;;;;;5.35;2.28;;;;;;;13.93;64.13;100087.78;10389313;28;20386;-64
2023/10/10 23:38:44;;;;;;;11.68;3.15;;;;;;;13.81;64.71;100092.16;10385070;28;20090;-65
2023/10/10 23:43:47;;;;;;;5.30;2.38;;;;;;;13.77;64.73;100090.69;10387621;28;20041;-65
2023/10/10 23:48:49;;;;;;;6.80;2.83;;;;;;;13.75;64.77;100085.53;10382799;28;20050;-65
2023/10/10 23:53:51;;;;;;;9.85;3.28;;;;;;;13.73;64.82;100078.69;10387397;28;20413;-65
2023/10/10 23:58:54;;;;;;;7.45;2.92;;;;;;;13.71;64.89;100085.84;10384140;28;20485;-65
